createdAt,value
2019-04-07T00:00:07.668Z,92464.19
2019-04-07T00:02:36.229Z,92462.13
2019-04-07T00:05:11.876Z,92458.51
2019-04-07T00:07:37.136Z,92457.92
2019-04-07T00:10:09.832Z,92463.48
2019-04-07T00:12:38.277Z,92469.87
2019-04-07T00:15:07.077Z,92466.30
2019-04-07T00:17:36.155Z,92470.20
2019-04-07T00:20:06.637Z,92469.60
2019-04-07T00:22:35.785Z,92473.50
2019-04-07T00:25:05.763Z,92472.73
2019-04-07T00:27:34.179Z,92468.39
2019-04-07T00:30:02.653Z,92465.40
2019-04-07T00:32:31.303Z,92461.41
2019-04-07T00:34:59.949Z,92469.52
2019-04-07T00:37:28.527Z,92469.52
2019-04-07T00:39:56.985Z,92476.63
2019-04-07T00:42:25.915Z,92472.42
2019-04-07T00:44:54.513Z,92468.53
2019-04-07T00:47:23.413Z,92469.52
2019-04-07T00:49:52.189Z,92472.28
2019-04-07T00:52:22.406Z,92475.87
2019-04-07T00:54:51.320Z,92469.06
2019-04-07T00:57:19.936Z,92469.97
2019-04-07T00:59:48.883Z,92467.91
2019-04-07T01:02:17.821Z,92468.76
2019-04-07T01:04:46.292Z,92472.73
2019-04-07T01:07:15.524Z,92466.92
2019-04-07T01:09:44.149Z,92467.23
2019-04-07T01:12:12.850Z,92466.16
2019-04-07T01:14:41.756Z,92463.56
2019-04-07T01:17:10.735Z,92463.96
2019-04-07T01:19:39.818Z,92462.80
2019-04-07T01:22:08.992Z,92462.27
2019-04-07T01:24:37.985Z,92464.63
2019-04-07T01:27:06.680Z,92462.39
2019-04-07T01:29:35.390Z,92465.80
2019-04-07T01:32:04.085Z,92465.20
2019-04-07T01:34:32.581Z,92470.08
2019-04-07T01:37:01.092Z,92472.23
2019-04-07T01:39:29.527Z,92469.36
2019-04-07T01:42:05.902Z,92467.26
2019-04-07T01:44:36.595Z,92463.86
2019-04-07T01:47:12.439Z,92466.14
2019-04-07T01:49:44.500Z,92469.91
2019-04-07T01:52:15.274Z,92468.11
2019-04-07T01:54:48.249Z,92469.80
2019-04-07T01:57:35.460Z,92470.78
2019-04-07T02:00:14.115Z,92475.61
2019-04-07T02:02:44.465Z,92468.08
2019-04-07T02:05:15.524Z,92476.80
2019-04-07T02:07:54.267Z,92471.56
2019-04-07T02:10:24.357Z,92468.00
2019-04-07T02:13:07.415Z,92468.05
2019-04-07T02:15:40.594Z,92469.97
2019-04-07T02:18:13.749Z,92469.66
2019-04-07T02:21:05.432Z,92463.72
2019-04-07T02:23:44.687Z,92464.16
2019-04-07T02:26:33.204Z,92467.45
2019-04-07T02:29:19.195Z,92466.70
2019-04-07T02:32:01.675Z,92459.16
2019-04-07T02:34:34.453Z,92455.19
2019-04-07T02:37:10.722Z,92453.73
2019-04-07T02:39:48.564Z,92454.58
2019-04-07T02:42:21.655Z,92459.04
2019-04-07T02:45:09.229Z,92460.41
2019-04-07T02:47:48.575Z,92460.02
2019-04-07T02:50:18.741Z,92462.02
2019-04-07T02:52:49.188Z,92462.20
2019-04-07T02:55:19.584Z,92462.02
2019-04-07T02:58:05.975Z,92464.34
2019-04-07T03:00:52.534Z,92463.92
2019-04-07T03:03:27.041Z,92463.44
2019-04-07T03:06:00.426Z,92466.46
2019-04-07T03:08:36.406Z,92466.58
2019-04-07T03:11:24.873Z,92469.17
2019-04-07T03:13:55.001Z,92469.11
2019-04-07T03:16:37.532Z,92470.91
2019-04-07T03:19:10.719Z,92472.40
2019-04-07T03:21:56.055Z,92471.82
2019-04-07T03:24:26.663Z,92477.81
2019-04-07T03:27:03.044Z,92482.68
2019-04-07T03:29:34.011Z,92484.61
2019-04-07T03:32:06.151Z,92489.30
2019-04-07T03:34:40.920Z,92485.80
2019-04-07T03:37:26.033Z,92490.52
2019-04-07T03:39:51.319Z,92488.66
2019-04-07T03:42:34.312Z,92481.77
2019-04-07T03:45:04.499Z,92479.73
2019-04-07T03:47:41.740Z,92479.48
2019-04-07T03:50:25.193Z,92486.22
2019-04-07T03:53:12.431Z,92482.19
2019-04-07T03:55:54.640Z,92486.71
2019-04-07T03:58:39.832Z,92477.32
2019-04-07T04:01:25.895Z,92481.70
2019-04-07T04:04:11.345Z,92480.41
2019-04-07T04:06:57.591Z,92483.63
2019-04-07T04:09:37.102Z,92483.38
2019-04-07T04:12:22.714Z,92482.64
2019-04-07T04:14:52.907Z,92477.56
2019-04-07T04:17:21.357Z,92481.42
2019-04-07T04:19:49.767Z,92486.34
2019-04-07T04:22:18.685Z,92483.80
2019-04-07T04:24:47.233Z,92490.25
2019-04-07T04:27:15.635Z,92493.26
2019-04-07T04:29:44.935Z,92490.28
2019-04-07T04:32:13.551Z,92496.34
2019-04-07T04:34:43.156Z,92497.59
2019-04-07T04:37:12.602Z,92500.68
2019-04-07T04:39:41.194Z,92502.33
2019-04-07T04:42:10.432Z,92505.62
2019-04-07T04:44:38.919Z,92504.67
2019-04-07T04:47:08.073Z,92508.77
2019-04-07T04:49:37.115Z,92510.30
2019-04-07T04:52:05.836Z,92513.61
2019-04-07T04:54:35.264Z,92516.27
2019-04-07T04:57:06.442Z,92515.22
2019-04-07T04:59:33.941Z,92514.59
2019-04-07T05:02:02.399Z,92523.01
2019-04-07T05:04:30.824Z,92527.14
2019-04-07T05:06:59.440Z,92528.23
2019-04-07T05:09:40.228Z,92527.74
2019-04-07T05:11:58.731Z,92533.51
2019-04-07T05:14:27.535Z,92538.63
2019-04-07T05:16:56.136Z,92541.89
2019-04-07T05:19:24.705Z,92541.39
2019-04-07T05:21:53.194Z,92540.94
2019-04-07T05:24:22.092Z,92537.66
2019-04-07T05:26:50.907Z,92543.30
2019-04-07T05:29:20.079Z,92533.05
2019-04-07T05:31:49.149Z,92530.47
2019-04-07T05:34:20.418Z,92534.54
2019-04-07T05:36:47.893Z,92533.55
2019-04-07T05:39:16.544Z,92537.37
2019-04-07T05:41:45.100Z,92540.81
2019-04-07T05:44:13.599Z,92545.44
2019-04-07T05:46:42.613Z,92546.55
2019-04-07T05:49:12.028Z,92554.66
2019-04-07T05:51:42.314Z,92562.28
2019-04-07T05:54:12.303Z,92566.95
2019-04-07T05:56:41.288Z,92567.80
2019-04-07T05:59:12.134Z,92572.84
2019-04-07T06:01:40.175Z,92573.97
2019-04-07T06:04:08.956Z,92579.00
2019-04-07T06:06:39.890Z,92584.89
2019-04-07T06:09:08.106Z,92578.38
2019-04-07T06:11:36.526Z,92573.39
2019-04-07T06:14:05.726Z,92579.84
2019-04-07T06:16:34.409Z,92582.25
2019-04-07T06:19:06.997Z,92578.71
2019-04-07T06:21:33.380Z,92581.77
2019-04-07T06:24:02.534Z,92583.91
2019-04-07T06:26:31.306Z,92584.64
2019-04-07T06:28:59.868Z,92588.53
2019-04-07T06:31:31.332Z,92583.45
2019-04-07T06:33:58.937Z,92586.28
2019-04-07T06:36:27.430Z,92586.27
2019-04-07T06:38:55.905Z,92582.16
2019-04-07T06:41:29.490Z,92579.06
2019-04-07T06:44:08.316Z,92582.66
2019-04-07T06:46:28.581Z,92574.62
2019-04-07T06:48:58.279Z,92578.09
2019-04-07T06:51:30.916Z,92579.48
2019-04-07T06:54:00.269Z,92578.36
2019-04-07T06:56:33.471Z,92586.24
2019-04-07T06:59:05.692Z,92587.06
2019-04-07T07:01:48.281Z,92583.52
2019-04-07T07:04:36.728Z,92576.89
2019-04-07T07:07:16.776Z,92575.47
2019-04-07T07:09:50.281Z,92573.68
2019-04-07T07:12:34.921Z,92572.38
2019-04-07T07:15:07.901Z,92567.98
2019-04-07T07:17:51.071Z,92569.95
2019-04-07T07:20:22.191Z,92568.81
2019-04-07T07:22:52.670Z,92571.44
2019-04-07T07:25:21.496Z,92570.86
2019-04-07T07:27:50.112Z,92573.61
2019-04-07T07:30:20.242Z,92580.06
2019-04-07T07:32:50.590Z,92580.20
2019-04-07T07:35:20.173Z,92582.63
2019-04-07T07:37:48.679Z,92583.73
2019-04-07T07:40:18.334Z,92579.98
2019-04-07T07:42:49.571Z,92585.66
2019-04-07T07:45:17.508Z,92588.56
2019-04-07T07:47:46.538Z,92583.67
2019-04-07T07:50:15.407Z,92585.25
2019-04-07T07:52:49.263Z,92582.66
2019-04-07T07:55:17.294Z,92585.13
2019-04-07T07:57:45.805Z,92588.68
2019-04-07T08:00:14.590Z,92583.80
2019-04-07T08:02:43.106Z,92585.32
2019-04-07T08:05:11.546Z,92583.88
2019-04-07T08:07:44.346Z,92588.19
2019-04-07T08:10:10.775Z,92590.72
2019-04-07T08:12:40.005Z,92591.80
2019-04-07T08:15:09.618Z,92594.91
2019-04-07T08:17:38.077Z,92592.03
2019-04-07T08:20:07.796Z,92602.20
2019-04-07T08:22:40.599Z,92598.55
2019-04-07T08:25:06.639Z,92598.78
2019-04-07T08:27:35.484Z,92603.70
2019-04-07T08:30:11.195Z,92598.20
2019-04-07T08:32:37.238Z,92598.22
2019-04-07T08:35:06.982Z,92604.52
2019-04-07T08:37:36.456Z,92601.42
2019-04-07T08:40:07.687Z,92594.42
2019-04-07T08:42:37.000Z,92599.80
2019-04-07T08:45:07.222Z,92601.16
2019-04-07T08:47:35.782Z,92599.82
2019-04-07T08:50:06.333Z,92599.97
2019-04-07T08:52:38.505Z,92607.90
2019-04-07T08:55:06.117Z,92608.20
2019-04-07T08:57:35.816Z,92612.52
2019-04-07T09:00:15.049Z,92614.09
2019-04-07T09:02:41.579Z,92619.81
2019-04-07T09:05:10.392Z,92621.73
2019-04-07T09:07:39.144Z,92629.19
2019-04-07T09:10:09.237Z,92623.41
2019-04-07T09:12:37.686Z,92630.52
2019-04-07T09:15:11.520Z,92634.74
2019-04-07T09:17:44.582Z,92630.98
2019-04-07T09:20:14.710Z,92627.16
2019-04-07T09:22:51.563Z,92636.64
2019-04-07T09:25:26.177Z,92637.95
2019-04-07T09:28:06.364Z,92636.61
2019-04-07T09:30:43.235Z,92639.70
2019-04-07T09:33:29.859Z,92641.59
2019-04-07T09:36:00.692Z,92633.50
2019-04-07T09:38:39.734Z,92640.47
2019-04-07T09:41:12.222Z,92636.16
2019-04-07T09:43:51.814Z,92638.63
2019-04-07T09:46:24.930Z,92635.57
2019-04-07T09:49:01.900Z,92630.50
2019-04-07T09:51:41.617Z,92638.28
2019-04-07T09:54:12.241Z,92640.98
2019-04-07T09:56:46.095Z,92642.30
2019-04-07T09:59:19.562Z,92646.27
2019-04-07T10:02:06.020Z,92643.46
2019-04-07T10:04:50.745Z,92648.13
2019-04-07T10:07:24.020Z,92650.98
2019-04-07T10:10:12.990Z,92654.41
2019-04-07T10:12:58.092Z,92650.84
2019-04-07T10:15:31.687Z,92655.47
2019-04-07T10:18:02.075Z,92655.54
2019-04-07T10:20:44.535Z,92650.84
2019-04-07T10:23:15.103Z,92662.22
2019-04-07T10:26:04.094Z,92657.44
2019-04-07T10:28:46.621Z,92662.75
2019-04-07T10:31:19.503Z,92654.81
2019-04-07T10:34:03.583Z,92659.15
2019-04-07T10:36:33.733Z,92659.28
2019-04-07T10:39:20.876Z,92660.06
2019-04-07T10:42:07.704Z,92660.09
2019-04-07T10:44:40.946Z,92656.01
2019-04-07T10:47:14.217Z,92659.45
2019-04-07T10:50:07.223Z,92664.30
2019-04-07T10:52:51.428Z,92661.98
2019-04-07T10:55:38.063Z,92659.38
2019-04-07T10:58:09.087Z,92651.97
2019-04-07T11:00:55.888Z,92649.45
2019-04-07T11:03:26.016Z,92643.80
2019-04-07T11:05:57.061Z,92639.16
2019-04-07T11:08:43.763Z,92632.09
2019-04-07T11:11:30.372Z,92632.04
2019-04-07T11:14:17.273Z,92622.98
2019-04-07T11:16:53.778Z,92627.58
2019-04-07T11:19:24.266Z,92638.31
2019-04-07T11:22:00.905Z,92630.23
2019-04-07T11:24:46.939Z,92637.64
2019-04-07T11:27:33.611Z,92647.52
2019-04-07T11:30:03.891Z,92642.59
2019-04-07T11:32:50.157Z,92636.98
2019-04-07T11:35:21.061Z,92640.03
2019-04-07T11:37:53.974Z,92642.41
2019-04-07T11:40:42.076Z,92632.08
2019-04-07T11:43:05.406Z,92634.84
2019-04-07T11:45:38.977Z,92633.86
2019-04-07T11:48:12.221Z,92630.41
2019-04-07T11:50:42.417Z,92632.52
2019-04-07T11:53:25.839Z,92638.30
2019-04-07T11:56:08.750Z,92629.91
2019-04-07T11:58:51.612Z,92628.61
2019-04-07T12:01:21.789Z,92635.19
2019-04-07T12:04:10.208Z,92633.63
2019-04-07T12:06:49.780Z,92633.19
2019-04-07T12:09:20.658Z,92636.04
2019-04-07T12:11:59.684Z,92638.19
2019-04-07T12:14:33.735Z,92643.67
2019-04-07T12:17:08.950Z,92637.91
2019-04-07T12:19:38.797Z,92646.51
2019-04-07T12:22:21.677Z,92640.50
2019-04-07T12:24:51.909Z,92644.75
2019-04-07T12:27:22.448Z,92655.20
2019-04-07T12:29:58.667Z,92654.99
2019-04-07T12:32:29.247Z,92655.24
2019-04-07T12:35:08.541Z,92656.44
2019-04-07T12:37:47.732Z,92650.54
2019-04-07T12:40:30.683Z,92645.99
2019-04-07T12:43:03.636Z,92647.47
2019-04-07T12:45:42.768Z,92649.64
2019-04-07T12:48:21.851Z,92645.25
2019-04-07T12:50:52.328Z,92649.39
2019-04-07T12:53:22.815Z,92645.27
2019-04-07T12:55:59.500Z,92643.16
2019-04-07T12:58:34.105Z,92647.46
2019-04-07T13:01:21.195Z,92645.14
2019-04-07T13:03:57.954Z,92642.51
2019-04-07T13:06:31.008Z,92651.71
2019-04-07T13:09:13.869Z,92651.67
2019-04-07T13:12:02.945Z,92660.08
2019-04-07T13:14:32.438Z,92649.54
2019-04-07T13:17:14.876Z,92659.50
2019-04-07T13:19:48.138Z,92654.39
2019-04-07T13:22:29.935Z,92655.70
2019-04-07T13:25:06.740Z,92662.75
2019-04-07T13:27:48.349Z,92664.06
2019-04-07T13:30:28.181Z,92663.21
2019-04-07T13:33:01.665Z,92666.38
2019-04-07T13:35:33.341Z,92666.97
2019-04-07T13:38:20.747Z,92665.89
2019-04-07T13:40:54.162Z,92664.19
2019-04-07T13:43:31.165Z,92665.05
2019-04-07T13:46:23.882Z,92667.13
2019-04-07T13:48:53.682Z,92672.66
2019-04-07T13:51:23.635Z,92676.82
2019-04-07T13:54:10.931Z,92668.78
2019-04-07T13:56:51.188Z,92669.30
2019-04-07T13:59:21.463Z,92674.34
2019-04-07T14:01:54.295Z,92669.88
2019-04-07T14:04:39.197Z,92675.67
2019-04-07T14:07:26.303Z,92674.88
2019-04-07T14:10:04.374Z,92676.70
2019-04-07T14:12:36.942Z,92674.77
2019-04-07T14:15:16.911Z,92676.14
2019-04-07T14:17:53.649Z,92671.25
2019-04-07T14:20:30.402Z,92674.34
2019-04-07T14:23:01.020Z,92672.97
2019-04-07T14:25:34.547Z,92678.74
2019-04-07T14:28:04.754Z,92683.63
2019-04-07T14:30:40.855Z,92677.89
2019-04-07T14:33:11.139Z,92680.89
2019-04-07T14:35:42.150Z,92688.35
2019-04-07T14:38:13.540Z,92685.36
2019-04-07T14:40:46.833Z,92689.02
2019-04-07T14:43:29.904Z,92689.11
2019-04-07T14:46:01.115Z,92690.61
2019-04-07T14:48:46.520Z,92690.04
2019-04-07T14:51:17.523Z,92686.06
2019-04-07T14:54:06.457Z,92690.10
2019-04-07T14:56:49.134Z,92695.51
2019-04-07T14:59:31.288Z,92690.78
2019-04-07T15:02:01.729Z,92694.15
2019-04-07T15:04:31.979Z,92701.58
2019-04-07T15:07:17.265Z,92701.69
2019-04-07T15:09:51.244Z,92700.77
2019-04-07T15:12:24.312Z,92701.94
2019-04-07T15:14:52.601Z,92710.31
2019-04-07T15:17:21.031Z,92709.92
2019-04-07T15:19:50.461Z,92712.17
2019-04-07T15:22:20.677Z,92710.59
2019-04-07T15:24:49.921Z,92721.36
2019-04-07T15:27:22.051Z,92717.53
2019-04-07T15:29:49.214Z,92720.91
2019-04-07T15:32:18.109Z,92728.83
2019-04-07T15:34:46.703Z,92733.69
2019-04-07T15:37:15.441Z,92730.61
2019-04-07T15:39:44.564Z,92737.82
2019-04-07T15:42:15.320Z,92742.52
2019-04-07T15:44:43.662Z,92740.00
2019-04-07T15:47:12.336Z,92742.39
2019-04-07T15:49:40.808Z,92747.77
2019-04-07T15:52:10.138Z,92744.05
2019-04-07T15:54:39.160Z,92748.47
2019-04-07T15:57:07.760Z,92749.81
2019-04-07T15:59:36.264Z,92742.00
2019-04-07T16:02:08.491Z,92738.39
2019-04-07T16:04:36.152Z,92750.11
2019-04-07T16:07:05.001Z,92748.78
2019-04-07T16:09:40.388Z,92749.48
2019-04-07T16:12:04.226Z,92763.44
2019-04-07T16:14:32.823Z,92766.80
2019-04-07T16:17:04.297Z,92773.88
2019-04-07T16:19:38.852Z,92770.17
2019-04-07T16:22:02.031Z,92775.85
2019-04-07T16:24:31.161Z,92781.44
2019-04-07T16:27:03.313Z,92777.80
2019-04-07T16:29:30.460Z,92786.27
2019-04-07T16:31:59.936Z,92784.42
2019-04-07T16:34:28.520Z,92792.77
2019-04-07T16:36:59.364Z,92798.48
2019-04-07T16:39:29.164Z,92793.36
2019-04-07T16:41:57.879Z,92804.56
2019-04-07T16:44:26.650Z,92809.17
2019-04-07T16:46:57.755Z,92807.88
2019-04-07T16:49:26.353Z,92814.92
2019-04-07T16:51:58.346Z,92820.27
2019-04-07T16:54:25.216Z,92819.97
2019-04-07T16:56:56.943Z,92831.33
2019-04-07T16:59:23.982Z,92838.91
2019-04-07T17:01:52.971Z,92833.20
2019-04-07T17:04:21.583Z,92834.05
2019-04-07T17:06:59.503Z,92839.38
2019-04-07T17:09:24.124Z,92834.66
2019-04-07T17:11:51.579Z,92834.05
2019-04-07T17:14:20.255Z,92831.36
2019-04-07T17:16:48.774Z,92834.00
2019-04-07T17:19:18.184Z,92843.91
2019-04-07T17:21:47.088Z,92848.88
2019-04-07T17:24:15.708Z,92853.22
2019-04-07T17:26:44.322Z,92846.57
2019-04-07T17:29:16.980Z,92845.98
2019-04-07T17:31:43.380Z,92843.12
2019-04-07T17:34:14.024Z,92837.66
2019-04-07T17:36:42.862Z,92839.73
2019-04-07T17:39:22.796Z,92846.34
2019-04-07T17:41:52.512Z,92851.75
2019-04-07T17:44:35.116Z,92863.69
2019-04-07T17:47:08.494Z,92866.87
2019-04-07T17:49:39.571Z,92871.55
2019-04-07T17:52:26.162Z,92872.47
2019-04-07T17:54:56.292Z,92870.91
2019-04-07T17:57:29.257Z,92873.61
2019-04-07T18:00:18.582Z,92878.25
2019-04-07T18:02:54.817Z,92877.50
2019-04-07T18:05:23.604Z,92882.37
2019-04-07T18:07:55.138Z,92896.69
2019-04-07T18:10:37.379Z,92898.79
2019-04-07T18:13:22.833Z,92902.80
2019-04-07T18:15:51.734Z,92912.37
2019-04-07T18:18:31.500Z,92904.05
2019-04-07T18:21:13.297Z,92903.63
2019-04-07T18:23:45.063Z,92905.56
2019-04-07T18:26:35.462Z,92910.48
2019-04-07T18:29:14.731Z,92911.41
2019-04-07T18:32:01.880Z,92916.43
2019-04-07T18:34:33.308Z,92923.47
2019-04-07T18:37:20.561Z,92925.22
2019-04-07T18:40:00.673Z,92926.64
2019-04-07T18:42:35.016Z,92923.47
2019-04-07T18:45:12.170Z,92930.52
2019-04-07T18:47:52.269Z,92933.50
2019-04-07T18:50:27.322Z,92936.34
2019-04-07T18:53:14.478Z,92935.13
2019-04-07T18:55:53.792Z,92940.16
2019-04-07T18:58:24.507Z,92940.97
2019-04-07T19:01:08.912Z,92942.58
2019-04-07T19:03:39.599Z,92956.07
2019-04-07T19:06:12.774Z,92957.27
2019-04-07T19:08:44.949Z,92958.07
2019-04-07T19:11:30.851Z,92962.67
2019-04-07T19:14:25.955Z,92963.67
2019-04-07T19:16:47.095Z,92963.37
2019-04-07T19:19:33.385Z,92967.90
2019-04-07T19:22:06.695Z,92968.50
2019-04-07T19:24:37.805Z,92967.86
2019-04-07T19:27:28.619Z,92976.52
2019-04-07T19:30:02.086Z,92980.94
2019-04-07T19:32:34.755Z,92977.02
2019-04-07T19:35:15.260Z,92979.75
2019-04-07T19:37:50.834Z,92976.61
2019-04-07T19:40:27.697Z,92986.66
2019-04-07T19:43:12.535Z,92988.96
2019-04-07T19:45:59.015Z,92985.62
2019-04-07T19:48:39.038Z,92982.73
2019-04-07T19:51:10.006Z,92986.05
2019-04-07T19:53:55.799Z,92990.37
2019-04-07T19:56:29.388Z,92991.98
2019-04-07T19:59:08.226Z,92991.78
2019-04-07T20:01:53.508Z,92991.78
2019-04-07T20:04:30.483Z,92992.38
2019-04-07T20:07:13.657Z,92997.59
2019-04-07T20:09:52.910Z,92997.08
2019-04-07T20:12:25.426Z,92995.59
2019-04-07T20:15:14.804Z,93003.08
2019-04-07T20:17:43.812Z,93004.97
2019-04-07T20:20:17.432Z,93006.20
2019-04-07T20:22:58.482Z,93011.23
2019-04-07T20:25:37.561Z,93022.08
2019-04-07T20:28:19.693Z,93018.16
2019-04-07T20:31:06.009Z,93012.80
2019-04-07T20:33:36.193Z,93004.97
2019-04-07T20:36:24.158Z,93005.38
2019-04-07T20:39:07.301Z,93016.23
2019-04-07T20:41:38.005Z,93019.11
2019-04-07T20:44:08.201Z,93006.56
2019-04-07T20:46:47.275Z,93006.67
2019-04-07T20:49:35.506Z,93007.62
2019-04-07T20:52:24.003Z,93013.09
2019-04-07T20:55:05.446Z,93017.31
2019-04-07T20:57:34.320Z,93014.12
2019-04-07T21:00:16.530Z,93011.06
2019-04-07T21:03:10.757Z,93017.25
2019-04-07T21:05:29.238Z,93020.95
2019-04-07T21:08:08.317Z,93017.09
2019-04-07T21:10:45.577Z,93020.95
2019-04-07T21:13:16.769Z,93022.16
2019-04-07T21:15:54.148Z,93021.63
2019-04-07T21:18:42.747Z,93023.31
2019-04-07T21:21:19.292Z,93025.20
2019-04-07T21:23:49.791Z,93017.06
2019-04-07T21:26:37.618Z,93016.26
2019-04-07T21:29:23.913Z,93019.92
2019-04-07T21:31:57.230Z,93011.23
2019-04-07T21:34:33.479Z,93019.55
2019-04-07T21:37:03.591Z,93025.89
2019-04-07T21:39:45.687Z,93020.42
2019-04-07T21:42:27.804Z,93017.56
2019-04-07T21:45:14.773Z,93022.65
2019-04-07T21:48:01.357Z,93024.30
2019-04-07T21:50:46.818Z,93027.47
2019-04-07T21:53:16.871Z,93023.18
2019-04-07T21:55:53.275Z,93021.66
2019-04-07T21:58:39.911Z,93019.19
2019-04-07T22:01:12.974Z,93018.52
2019-04-07T22:03:58.775Z,93013.38
2019-04-07T22:06:32.135Z,93018.34
2019-04-07T22:09:08.847Z,93021.58
2019-04-07T22:11:37.431Z,93021.20
2019-04-07T22:14:07.617Z,93019.37
2019-04-07T22:16:36.404Z,93021.94
2019-04-07T22:19:09.369Z,93018.75
2019-04-07T22:21:36.202Z,93024.84
2019-04-07T22:24:05.253Z,93020.59
2019-04-07T22:26:33.787Z,93017.80
2019-04-07T22:29:04.030Z,93023.55
2019-04-07T22:31:46.911Z,93024.10
2019-04-07T22:34:16.490Z,93035.24
2019-04-07T22:36:47.641Z,93030.75
2019-04-07T22:39:16.236Z,93028.55
2019-04-07T22:41:44.741Z,93028.02
2019-04-07T22:44:19.928Z,93038.16
2019-04-07T22:46:49.916Z,93038.53
2019-04-07T22:49:17.633Z,93033.31
2019-04-07T22:51:48.298Z,93036.38
2019-04-07T22:54:16.711Z,93036.95
2019-04-07T22:56:45.401Z,93045.59
2019-04-07T22:59:13.849Z,93046.97
2019-04-07T23:01:43.107Z,93048.10
2019-04-07T23:04:12.013Z,93047.03
2019-04-07T23:06:40.574Z,93051.96
2019-04-07T23:09:09.967Z,93050.03
2019-04-07T23:11:41.514Z,93047.11
2019-04-07T23:14:09.968Z,93055.39
2019-04-07T23:16:38.459Z,93055.66
2019-04-07T23:19:06.863Z,93053.95
2019-04-07T23:21:35.392Z,93055.94
2019-04-07T23:24:03.948Z,93058.48
2019-04-07T23:26:32.457Z,93056.42
2019-04-07T23:29:00.879Z,93058.00
2019-04-07T23:31:32.001Z,93053.49
2019-04-07T23:34:00.701Z,93060.69
2019-04-07T23:36:29.247Z,93060.95
2019-04-07T23:38:58.059Z,93059.78
2019-04-07T23:41:27.735Z,93063.46
2019-04-07T23:43:56.796Z,93065.13
2019-04-07T23:46:27.188Z,93065.21
2019-04-07T23:48:56.003Z,93068.73
2019-04-07T23:51:24.469Z,93066.30
2019-04-07T23:54:14.343Z,93065.88
2019-04-07T23:56:44.215Z,93073.34
2019-04-07T23:59:14.438Z,93068.13
